Andrews A F B, District of Columbia
Current Conditions -  °F | °C
As of 2:55 PM on Friday 19 Dec 2014 (Local Time) from KADW Reporting Station
Overcast Overcast  
Wind Chill: -1°   Ceiling: 3700
Heat Index:   Visibility: 10mi
Dew Point: -5°   Wind: 13mph
Humidity: 54%   Direction: 300°WNW
Pressure: 30.13"   Gusts: NA
Location:  38.8022°N, 76.8857°W
Report Text: KADW 191955Z 30011KT 10SM OVC037 04/M05 A3013 RMK AO2A SLP208 T00351050
Loading
Personal Weather Stations






























Interactive Weather Map New forecast layout! Learn more

10-Day Weather Forecast

Advertisements
Track Severe Weather on mobile